createdAt,value
2018-12-27T00:01:37.558Z,-3.80
2018-12-27T00:04:48.736Z,-3.80
2018-12-27T00:07:56.611Z,-3.80
2018-12-27T00:13:51.833Z,-3.90
2018-12-27T00:16:59.982Z,-3.90
2018-12-27T00:20:03.062Z,-4.00
2018-12-27T00:23:06.221Z,-4.00
2018-12-27T00:26:19.301Z,-4.00
2018-12-27T00:29:18.098Z,-4.00
2018-12-27T00:32:19.593Z,-4.00
2018-12-27T00:35:22.000Z,-4.00
2018-12-27T00:41:23.458Z,-4.00
2018-12-27T00:44:38.529Z,-4.10
2018-12-27T00:47:30.587Z,-4.10
2018-12-27T00:50:19.790Z,-4.10
2018-12-27T00:53:12.536Z,-4.00
2018-12-27T00:56:06.881Z,-4.00
2018-12-27T00:58:55.011Z,-4.10
2018-12-27T01:01:47.257Z,-4.10
2018-12-27T01:04:36.067Z,-4.10
2018-12-27T01:07:24.384Z,-4.10
2018-12-27T01:10:18.594Z,-4.10
2018-12-27T01:13:06.878Z,-4.00
2018-12-27T01:15:58.028Z,-4.00
2018-12-27T01:18:51.260Z,-4.00
2018-12-27T01:21:42.009Z,-4.10
2018-12-27T01:24:32.043Z,-4.10
2018-12-27T01:27:21.566Z,-4.10
2018-12-27T01:30:16.363Z,-4.10
2018-12-27T01:33:18.520Z,-4.20
2018-12-27T01:36:06.421Z,-4.20
2018-12-27T01:38:57.709Z,-4.10
2018-12-27T01:41:49.448Z,-4.20
2018-12-27T01:44:41.420Z,-4.10
2018-12-27T01:47:37.900Z,-4.10
2018-12-27T01:50:26.138Z,-4.10
2018-12-27T01:53:15.774Z,-4.10
2018-12-27T01:56:12.568Z,-4.20
2018-12-27T01:59:10.338Z,-4.20
2018-12-27T02:01:58.304Z,-4.20
2018-12-27T02:05:12.961Z,-4.20
2018-12-27T02:08:22.128Z,-4.20
2018-12-27T02:11:15.572Z,-4.30
2018-12-27T02:14:49.296Z,-4.20
2018-12-27T02:18:01.150Z,-4.10
2018-12-27T02:20:50.112Z,-4.00
2018-12-27T02:23:39.260Z,-3.90
2018-12-27T02:26:28.841Z,-3.90
2018-12-27T02:29:21.286Z,-3.90
2018-12-27T02:32:14.053Z,-3.90
2018-12-27T02:35:09.491Z,-3.90
2018-12-27T02:38:07.565Z,-3.90
2018-12-27T02:41:11.558Z,-4.00
2018-12-27T02:44:25.316Z,-4.00
2018-12-27T02:47:31.147Z,-4.10
2018-12-27T02:50:34.051Z,-4.20
2018-12-27T02:53:26.188Z,-4.20
2018-12-27T02:56:31.596Z,-4.30
2018-12-27T02:59:28.129Z,-4.30
2018-12-27T03:02:33.440Z,-4.40
2018-12-27T03:05:37.849Z,-4.40
2018-12-27T03:08:55.281Z,-4.40
2018-12-27T03:11:50.943Z,-4.40
2018-12-27T03:14:40.399Z,-4.50
2018-12-27T03:17:34.748Z,-4.60
2018-12-27T03:20:28.793Z,-4.60
2018-12-27T03:23:17.754Z,-4.60
2018-12-27T03:26:32.493Z,-4.60
2018-12-27T03:30:20.017Z,-4.60
2018-12-27T03:33:18.732Z,-4.60
2018-12-27T03:36:02.586Z,-4.60
2018-12-27T03:39:12.801Z,-4.60
2018-12-27T03:42:07.800Z,-4.60
2018-12-27T03:47:59.098Z,-4.60
2018-12-27T03:50:57.332Z,-4.50
2018-12-27T03:54:11.441Z,-4.50
2018-12-27T03:57:08.424Z,-4.60
2018-12-27T04:01:12.030Z,-4.50
2018-12-27T04:17:00.453Z,-4.60
2018-12-27T04:20:37.378Z,-4.60
2018-12-27T04:23:48.969Z,-4.60
2018-12-27T04:26:37.190Z,-4.60
2018-12-27T04:29:56.314Z,-4.60
2018-12-27T04:32:57.366Z,-4.60
2018-12-27T04:39:48.325Z,-4.60
2018-12-27T04:42:40.970Z,-4.60
2018-12-27T04:49:44.891Z,-4.60
2018-12-27T04:53:36.883Z,-4.60
2018-12-27T04:57:54.633Z,-4.60
2018-12-27T05:00:15.883Z,-4.70
2018-12-27T05:03:15.028Z,-4.70
2018-12-27T05:10:42.635Z,-4.80
2018-12-27T05:17:54.102Z,-4.80
2018-12-27T05:22:28.187Z,-4.80
2018-12-27T05:25:14.390Z,-4.80
2018-12-27T05:31:48.828Z,-4.80
2018-12-27T05:34:50.264Z,-4.80
2018-12-27T05:38:14.366Z,-4.80
2018-12-27T05:41:55.397Z,-4.80
2018-12-27T05:44:40.336Z,-4.80
2018-12-27T05:48:58.161Z,-4.80
2018-12-27T06:06:05.557Z,-4.70
2018-12-27T06:09:29.861Z,-4.70
2018-12-27T06:19:01.750Z,-4.80
2018-12-27T06:22:13.242Z,-4.90
2018-12-27T06:28:48.128Z,-5.00
2018-12-27T06:32:17.968Z,-5.00
2018-12-27T06:35:45.281Z,-5.00
2018-12-27T06:38:49.782Z,-5.00
2018-12-27T06:42:00.586Z,-5.00
2018-12-27T06:45:14.883Z,-4.90
2018-12-27T06:48:20.412Z,-4.80
2018-12-27T06:51:09.138Z,-4.80
2018-12-27T06:54:44.720Z,-4.80
2018-12-27T06:58:07.575Z,-4.70
2018-12-27T07:05:01.771Z,-4.80
2018-12-27T07:07:56.259Z,-4.80
2018-12-27T07:10:55.593Z,-4.80
2018-12-27T07:14:06.741Z,-4.80
2018-12-27T07:17:15.603Z,-4.80
2018-12-27T07:20:38.803Z,-4.80
2018-12-27T07:24:12.972Z,-4.80
2018-12-27T07:27:24.630Z,-4.90
2018-12-27T07:30:16.081Z,-4.80
2018-12-27T07:33:10.778Z,-4.80
2018-12-27T07:35:59.112Z,-4.80
2018-12-27T07:39:25.113Z,-4.70
2018-12-27T07:42:34.387Z,-4.70
2018-12-27T07:49:26.961Z,-4.70
2018-12-27T07:52:26.394Z,-4.60
2018-12-27T07:55:37.102Z,-4.60
2018-12-27T07:58:59.622Z,-4.50
2018-12-27T08:02:27.603Z,-4.50
2018-12-27T08:05:18.176Z,-4.40
2018-12-27T08:08:06.262Z,-4.30
2018-12-27T08:10:54.286Z,-4.20
2018-12-27T08:13:48.375Z,-4.20
2018-12-27T08:16:39.452Z,-4.10
2018-12-27T08:19:27.472Z,-3.90
2018-12-27T08:22:15.461Z,-3.80
2018-12-27T08:25:03.323Z,-3.70
2018-12-27T08:27:51.561Z,-3.60
2018-12-27T08:30:39.414Z,-3.50
2018-12-27T08:33:27.243Z,-3.40
2018-12-27T08:36:15.121Z,-3.20
2018-12-27T08:39:03.857Z,-3.00
2018-12-27T08:41:52.572Z,-2.90
2018-12-27T08:44:40.228Z,-2.80
2018-12-27T08:47:27.944Z,-2.60
2018-12-27T08:50:15.788Z,-2.40
2018-12-27T08:53:03.917Z,-2.30
2018-12-27T08:55:51.812Z,-2.10
2018-12-27T08:58:39.417Z,-1.90
2018-12-27T09:01:31.347Z,-1.70
2018-12-27T09:04:19.188Z,-1.60
2018-12-27T09:07:06.817Z,-1.40
2018-12-27T09:09:54.466Z,-1.30
2018-12-27T09:12:42.088Z,-1.10
2018-12-27T09:15:30.055Z,-1.00
2018-12-27T09:18:17.773Z,-0.90
2018-12-27T09:21:05.599Z,-0.80
2018-12-27T09:23:53.272Z,-0.70
2018-12-27T09:26:41.204Z,-0.60
2018-12-27T09:29:28.945Z,-0.60
2018-12-27T09:32:16.471Z,-0.50
2018-12-27T09:35:04.763Z,-0.40
2018-12-27T09:37:58.982Z,-0.20
2018-12-27T09:40:46.961Z,-0.10
2018-12-27T09:43:34.657Z,0.10
2018-12-27T09:46:22.670Z,0.20
2018-12-27T09:49:10.636Z,0.30
2018-12-27T09:52:02.298Z,0.40
2018-12-27T09:54:50.057Z,0.50
2018-12-27T09:57:37.837Z,0.50
2018-12-27T10:00:25.359Z,0.40
2018-12-27T10:03:13.224Z,0.40
2018-12-27T10:06:04.606Z,0.40
2018-12-27T10:08:52.516Z,0.50
2018-12-27T10:11:40.086Z,0.50
2018-12-27T10:14:27.908Z,0.50
2018-12-27T10:17:15.632Z,0.50
2018-12-27T10:20:03.298Z,0.50
2018-12-27T10:22:51.322Z,0.50
2018-12-27T10:25:39.390Z,0.60
2018-12-27T10:28:27.047Z,0.70
2018-12-27T10:31:14.795Z,0.80
2018-12-27T10:34:02.530Z,0.90
2018-12-27T10:36:50.479Z,0.90
2018-12-27T10:39:39.188Z,0.90
2018-12-27T10:42:26.786Z,1.00
2018-12-27T10:45:15.374Z,1.10
2018-12-27T10:48:05.053Z,1.20
2018-12-27T10:50:54.025Z,1.40
2018-12-27T10:53:41.524Z,1.60
2018-12-27T10:56:29.098Z,1.70
2018-12-27T10:59:16.526Z,1.90
2018-12-27T11:02:04.212Z,2.00
2018-12-27T11:04:51.902Z,2.10
2018-12-27T11:07:39.931Z,2.20
2018-12-27T11:10:27.722Z,2.30
2018-12-27T11:13:15.066Z,2.40
2018-12-27T11:16:02.250Z,2.50
2018-12-27T11:18:49.583Z,2.60
2018-12-27T11:21:36.859Z,2.70
2018-12-27T11:24:24.549Z,2.80
2018-12-27T11:27:12.502Z,2.80
2018-12-27T11:30:00.231Z,2.90
2018-12-27T11:32:49.161Z,3.00
2018-12-27T11:35:36.832Z,3.10
2018-12-27T11:38:24.541Z,3.20
2018-12-27T11:41:14.212Z,3.30
2018-12-27T11:44:02.133Z,3.40
2018-12-27T11:46:49.996Z,3.50
2018-12-27T11:49:38.062Z,3.60
2018-12-27T11:52:26.004Z,3.70
2018-12-27T11:55:13.803Z,3.90
2018-12-27T11:58:01.618Z,4.00
2018-12-27T12:00:49.746Z,4.10
2018-12-27T12:03:37.636Z,4.20
2018-12-27T12:06:25.320Z,4.20
2018-12-27T12:09:13.176Z,4.30
2018-12-27T12:12:01.001Z,4.40
2018-12-27T12:14:48.529Z,4.40
2018-12-27T12:17:36.362Z,4.50
2018-12-27T12:20:24.455Z,4.60
2018-12-27T12:23:12.425Z,4.60
2018-12-27T12:26:00.148Z,4.60
2018-12-27T12:28:47.848Z,4.70
2018-12-27T12:31:35.522Z,4.70
2018-12-27T12:34:23.457Z,4.80
2018-12-27T12:37:14.193Z,4.80
2018-12-27T12:40:00.865Z,4.90
2018-12-27T12:42:48.807Z,4.90
2018-12-27T12:45:36.468Z,4.90
2018-12-27T12:48:25.314Z,4.90
2018-12-27T12:51:13.230Z,4.90
2018-12-27T12:54:01.267Z,4.80
2018-12-27T12:56:49.242Z,4.80
2018-12-27T12:59:36.935Z,4.80
2018-12-27T13:02:24.586Z,4.80
2018-12-27T13:05:12.375Z,4.80
2018-12-27T13:08:00.191Z,4.90
2018-12-27T13:10:47.719Z,4.90
2018-12-27T13:13:35.137Z,5.00
2018-12-27T13:16:22.846Z,5.00
2018-12-27T13:19:10.714Z,5.10
2018-12-27T13:21:58.111Z,5.10
2018-12-27T13:24:45.765Z,5.10
2018-12-27T13:27:33.630Z,5.10
2018-12-27T13:30:21.376Z,5.10
2018-12-27T13:33:09.179Z,5.10
2018-12-27T13:35:56.598Z,5.20
2018-12-27T13:38:44.515Z,5.20
2018-12-27T13:41:32.171Z,5.10
2018-12-27T13:44:19.785Z,5.10
2018-12-27T13:47:07.384Z,5.20
2018-12-27T13:49:54.995Z,5.20
2018-12-27T13:52:42.521Z,5.20
2018-12-27T13:55:30.482Z,5.20
2018-12-27T13:58:18.127Z,5.20
2018-12-27T14:01:05.906Z,5.30
2018-12-27T14:03:53.536Z,5.30
2018-12-27T14:06:40.876Z,5.30
2018-12-27T14:09:28.645Z,5.30
2018-12-27T14:12:16.251Z,5.30
2018-12-27T14:15:04.226Z,5.30
2018-12-27T14:17:51.572Z,5.30
2018-12-27T14:20:39.148Z,5.20
2018-12-27T14:23:26.702Z,5.20
2018-12-27T14:26:14.340Z,5.20
2018-12-27T14:29:01.722Z,5.20
2018-12-27T14:31:49.288Z,5.10
2018-12-27T14:34:36.931Z,5.10
2018-12-27T14:37:24.885Z,5.00
2018-12-27T14:40:12.966Z,5.00
2018-12-27T14:43:00.437Z,4.90
2018-12-27T14:45:48.367Z,4.80
2018-12-27T14:48:36.097Z,4.80
2018-12-27T14:51:23.839Z,4.70
2018-12-27T14:54:11.410Z,4.60
2018-12-27T14:56:59.286Z,4.40
2018-12-27T14:59:47.303Z,4.40
2018-12-27T15:02:34.767Z,4.30
2018-12-27T15:05:22.593Z,4.20
2018-12-27T15:08:09.963Z,4.10
2018-12-27T15:10:57.880Z,4.00
2018-12-27T15:13:45.275Z,3.90
2018-12-27T15:16:32.857Z,3.80
2018-12-27T15:19:20.742Z,3.70
2018-12-27T15:22:08.290Z,3.60
2018-12-27T15:24:55.665Z,3.50
2018-12-27T15:27:43.613Z,3.40
2018-12-27T15:30:31.526Z,3.20
2018-12-27T15:33:19.242Z,2.90
2018-12-27T15:36:06.775Z,2.80
2018-12-27T15:38:54.081Z,2.50
2018-12-27T15:41:41.804Z,2.30
2018-12-27T15:44:29.554Z,2.20
2018-12-27T15:47:16.976Z,2.20
2018-12-27T15:50:04.380Z,2.10
2018-12-27T15:52:52.340Z,2.10
2018-12-27T15:55:40.132Z,2.00
2018-12-27T15:58:27.794Z,2.00
2018-12-27T16:01:15.059Z,1.90
2018-12-27T16:04:03.501Z,1.90
2018-12-27T16:06:51.277Z,1.80
2018-12-27T16:09:38.890Z,1.80
2018-12-27T16:12:26.624Z,1.70
2018-12-27T16:15:14.722Z,1.70
2018-12-27T16:18:02.381Z,1.60
2018-12-27T16:20:50.199Z,1.60
2018-12-27T16:23:38.141Z,1.50
2018-12-27T16:26:26.030Z,1.50
2018-12-27T16:29:13.678Z,1.40
2018-12-27T16:32:01.226Z,1.40
2018-12-27T16:34:49.088Z,1.30
2018-12-27T16:37:37.164Z,1.30
2018-12-27T16:40:24.730Z,1.30
2018-12-27T16:43:12.691Z,1.30
2018-12-27T16:46:00.781Z,1.20
2018-12-27T16:48:48.692Z,1.20
2018-12-27T16:51:36.664Z,1.10
2018-12-27T16:54:24.838Z,1.10
2018-12-27T16:57:19.398Z,1.10
2018-12-27T17:00:01.637Z,1.10
2018-12-27T17:02:49.235Z,1.00
2018-12-27T17:05:37.365Z,1.00
2018-12-27T17:08:25.245Z,1.00
2018-12-27T17:11:13.541Z,0.90
2018-12-27T17:14:01.049Z,0.90
2018-12-27T17:16:48.986Z,0.90
2018-12-27T17:19:36.716Z,0.80
2018-12-27T17:22:24.745Z,0.80
2018-12-27T17:25:12.891Z,0.80
2018-12-27T17:28:00.634Z,0.80
2018-12-27T17:30:48.510Z,0.80
2018-12-27T17:33:36.299Z,0.70
2018-12-27T17:36:24.469Z,0.70
2018-12-27T17:39:11.788Z,0.70
2018-12-27T17:41:59.820Z,0.60
2018-12-27T17:44:47.843Z,0.60
2018-12-27T17:47:35.845Z,0.50
2018-12-27T17:50:23.321Z,0.50
2018-12-27T17:53:11.531Z,0.50
2018-12-27T17:55:59.532Z,0.50
2018-12-27T17:58:50.028Z,0.50
2018-12-27T18:01:40.544Z,0.50
2018-12-27T18:04:29.577Z,0.50
2018-12-27T18:07:20.312Z,0.50
2018-12-27T18:10:08.460Z,0.40
2018-12-27T18:12:56.756Z,0.40
2018-12-27T18:15:44.783Z,0.40
2018-12-27T18:18:32.281Z,0.40
2018-12-27T18:21:19.796Z,0.40
2018-12-27T18:24:07.627Z,0.30
2018-12-27T18:26:55.478Z,0.40
2018-12-27T18:29:43.217Z,0.30
2018-12-27T18:32:31.140Z,0.30
2018-12-27T18:35:19.328Z,0.30
2018-12-27T18:38:07.600Z,0.30
2018-12-27T18:40:56.531Z,0.30
2018-12-27T18:43:47.470Z,0.30
2018-12-27T18:46:35.566Z,0.30
2018-12-27T18:49:23.393Z,0.20
2018-12-27T18:52:10.512Z,0.20
2018-12-27T18:54:58.342Z,0.20
2018-12-27T18:57:46.651Z,0.20
2018-12-27T19:00:36.279Z,0.10
2018-12-27T19:03:26.892Z,0.10
2018-12-27T19:06:15.121Z,0.10
2018-12-27T19:09:03.189Z,0.10
2018-12-27T19:12:26.798Z,0.10
2018-12-27T19:15:18.455Z,0.00
2018-12-27T19:18:32.993Z,0.00
2018-12-27T19:21:31.527Z,0.00
2018-12-27T19:24:19.341Z,0.00
2018-12-27T19:27:06.879Z,0.00
2018-12-27T19:29:54.858Z,0.00
2018-12-27T19:32:42.770Z,-0.10
2018-12-27T19:35:31.012Z,-0.10
2018-12-27T19:38:20.231Z,-0.20
2018-12-27T19:41:10.039Z,-0.20
2018-12-27T19:43:57.711Z,-0.20
2018-12-27T19:46:45.770Z,-0.30
2018-12-27T19:49:33.983Z,-0.30
2018-12-27T19:52:30.802Z,-0.30
2018-12-27T19:55:18.512Z,-0.30
2018-12-27T19:58:06.253Z,-0.30
2018-12-27T20:00:53.935Z,-0.30
2018-12-27T20:03:41.932Z,-0.40
2018-12-27T20:06:29.689Z,-0.40
2018-12-27T20:09:17.528Z,-0.40
2018-12-27T20:12:05.225Z,-0.40
2018-12-27T20:14:52.963Z,-0.40
2018-12-27T20:17:41.896Z,-0.40
2018-12-27T20:20:29.843Z,-0.40
2018-12-27T20:23:17.970Z,-0.40
2018-12-27T20:26:06.234Z,-0.40
2018-12-27T20:28:54.155Z,-0.50
2018-12-27T20:31:41.846Z,-0.50
2018-12-27T20:34:29.600Z,-0.50
2018-12-27T20:37:18.021Z,-0.50
2018-12-27T20:40:07.208Z,-0.50
2018-12-27T20:42:58.705Z,-0.50
2018-12-27T20:45:49.318Z,-0.50
2018-12-27T20:48:37.678Z,-0.50
2018-12-27T20:51:28.792Z,-0.50
2018-12-27T20:54:19.131Z,-0.50
2018-12-27T20:57:08.203Z,-0.50
2018-12-27T21:00:00.263Z,-0.50
2018-12-27T21:02:48.634Z,-0.60
2018-12-27T21:05:37.587Z,-0.50
2018-12-27T21:08:25.741Z,-0.60
2018-12-27T21:11:17.469Z,-0.60
2018-12-27T21:14:08.007Z,-0.60
2018-12-27T21:16:59.478Z,-0.70
2018-12-27T21:19:48.155Z,-0.70
2018-12-27T21:22:46.957Z,-0.60
2018-12-27T21:25:35.336Z,-0.60
2018-12-27T21:28:25.826Z,-0.60
2018-12-27T21:31:14.136Z,-0.60
2018-12-27T21:34:02.696Z,-0.60
2018-12-27T21:36:55.950Z,-0.60
2018-12-27T21:39:44.576Z,-0.60
2018-12-27T21:42:38.700Z,-0.60
2018-12-27T21:45:27.286Z,-0.70
2018-12-27T21:48:15.472Z,-0.70
2018-12-27T21:51:06.161Z,-0.70
2018-12-27T21:54:00.066Z,-0.80
2018-12-27T21:56:50.569Z,-0.80
2018-12-27T21:59:38.535Z,-0.90
2018-12-27T22:02:26.663Z,-0.90
2018-12-27T22:05:14.963Z,-0.90
2018-12-27T22:08:02.768Z,-1.00
2018-12-27T22:10:50.674Z,-1.00
2018-12-27T22:13:38.310Z,-1.00
2018-12-27T22:16:26.267Z,-1.00
2018-12-27T22:19:13.758Z,-1.00
2018-12-27T22:22:02.453Z,-1.00
2018-12-27T22:24:50.210Z,-1.00
2018-12-27T22:27:39.403Z,-1.00
2018-12-27T22:30:34.459Z,-1.10
2018-12-27T22:33:22.407Z,-1.10
2018-12-27T22:36:11.309Z,-1.10
2018-12-27T22:38:59.174Z,-1.10
2018-12-27T22:41:46.819Z,-1.20
2018-12-27T22:44:34.908Z,-1.10
2018-12-27T22:47:22.588Z,-1.20
2018-12-27T22:50:10.493Z,-1.20
2018-12-27T22:52:58.492Z,-1.20
2018-12-27T22:55:56.751Z,-1.20
2018-12-27T22:58:44.837Z,-1.20
2018-12-27T23:01:32.792Z,-1.20
2018-12-27T23:04:24.887Z,-1.20
2018-12-27T23:07:17.880Z,-1.10
2018-12-27T23:10:09.419Z,-1.10
2018-12-27T23:12:58.316Z,-1.10
2018-12-27T23:15:50.666Z,-1.10
2018-12-27T23:18:39.238Z,-1.10
2018-12-27T23:21:31.278Z,-1.10
2018-12-27T23:24:20.876Z,-1.10
2018-12-27T23:27:09.175Z,-1.10
2018-12-27T23:29:57.399Z,-1.10
2018-12-27T23:32:45.219Z,-1.00
2018-12-27T23:35:36.063Z,-1.00
2018-12-27T23:38:26.314Z,-0.90
2018-12-27T23:41:14.298Z,-0.90
2018-12-27T23:44:05.381Z,-0.90
2018-12-27T23:46:59.470Z,-0.90
2018-12-27T23:49:47.361Z,-0.90
2018-12-27T23:52:35.409Z,-1.00
2018-12-27T23:55:23.699Z,-1.00
2018-12-27T23:58:13.276Z,-1.00
